sensor_id;sensor_type;location;lat;lon;timestamp;P1;durP1;ratioP1;P2;durP2;ratioP2
4519;SDS011;2272;49.226;8.108;2022-11-20T00:00:37;23.50;;;13.40;;
4519;SDS011;2272;49.226;8.108;2022-11-20T00:03:04;19.00;;;11.57;;
4519;SDS011;2272;49.226;8.108;2022-11-20T00:05:33;20.90;;;11.57;;
4519;SDS011;2272;49.226;8.108;2022-11-20T00:07:59;18.97;;;10.80;;
4519;SDS011;2272;49.226;8.108;2022-11-20T00:10:26;23.70;;;12.50;;
4519;SDS011;2272;49.226;8.108;2022-11-20T00:12:53;19.43;;;11.83;;
4519;SDS011;2272;49.226;8.108;2022-11-20T00:15:20;18.40;;;11.60;;
4519;SDS011;2272;49.226;8.108;2022-11-20T00:17:47;26.40;;;12.30;;
4519;SDS011;2272;49.226;8.108;2022-11-20T00:20:14;19.80;;;11.37;;
4519;SDS011;2272;49.226;8.108;2022-11-20T00:22:42;20.07;;;10.93;;
4519;SDS011;2272;49.226;8.108;2022-11-20T00:25:09;19.47;;;10.50;;
4519;SDS011;2272;49.226;8.108;2022-11-20T00:27:36;23.07;;;12.30;;
4519;SDS011;2272;49.226;8.108;2022-11-20T00:30:03;18.30;;;12.00;;
4519;SDS011;2272;49.226;8.108;2022-11-20T00:32:30;18.27;;;12.77;;
4519;SDS011;2272;49.226;8.108;2022-11-20T00:34:57;19.80;;;11.70;;
4519;SDS011;2272;49.226;8.108;2022-11-20T00:37:24;19.93;;;11.13;;
4519;SDS011;2272;49.226;8.108;2022-11-20T00:39:52;16.87;;;10.43;;
4519;SDS011;2272;49.226;8.108;2022-11-20T00:42:19;19.50;;;11.07;;
4519;SDS011;2272;49.226;8.108;2022-11-20T00:44:46;23.87;;;13.30;;
4519;SDS011;2272;49.226;8.108;2022-11-20T00:47:13;20.50;;;11.97;;
4519;SDS011;2272;49.226;8.108;2022-11-20T00:49:39;23.33;;;12.83;;
4519;SDS011;2272;49.226;8.108;2022-11-20T00:52:06;39.77;;;14.13;;
4519;SDS011;2272;49.226;8.108;2022-11-20T00:54:33;25.93;;;12.70;;
4519;SDS011;2272;49.226;8.108;2022-11-20T00:57:01;25.20;;;14.00;;
4519;SDS011;2272;49.226;8.108;2022-11-20T00:59:28;23.10;;;11.80;;
4519;SDS011;2272;49.226;8.108;2022-11-20T01:01:54;21.80;;;13.57;;
4519;SDS011;2272;49.226;8.108;2022-11-20T01:04:21;22.60;;;11.27;;
4519;SDS011;2272;49.226;8.108;2022-11-20T01:06:48;25.53;;;12.50;;
4519;SDS011;2272;49.226;8.108;2022-11-20T01:09:14;20.87;;;11.67;;
4519;SDS011;2272;49.226;8.108;2022-11-20T01:11:42;28.50;;;13.00;;
4519;SDS011;2272;49.226;8.108;2022-11-20T01:14:12;23.17;;;11.83;;
4519;SDS011;2272;49.226;8.108;2022-11-20T01:16:41;23.53;;;12.10;;
4519;SDS011;2272;49.226;8.108;2022-11-20T01:19:10;17.87;;;10.30;;
4519;SDS011;2272;49.226;8.108;2022-11-20T01:21:39;20.17;;;11.63;;
4519;SDS011;2272;49.226;8.108;2022-11-20T01:24:07;16.90;;;10.67;;
4519;SDS011;2272;49.226;8.108;2022-11-20T01:26:37;24.57;;;12.83;;
4519;SDS011;2272;49.226;8.108;2022-11-20T01:29:05;17.20;;;11.17;;
4519;SDS011;2272;49.226;8.108;2022-11-20T01:31:34;20.40;;;12.90;;
4519;SDS011;2272;49.226;8.108;2022-11-20T01:34:02;25.03;;;10.70;;
4519;SDS011;2272;49.226;8.108;2022-11-20T01:36:32;20.43;;;11.60;;
4519;SDS011;2272;49.226;8.108;2022-11-20T01:39:01;20.57;;;11.20;;
4519;SDS011;2272;49.226;8.108;2022-11-20T01:41:31;18.50;;;11.53;;
4519;SDS011;2272;49.226;8.108;2022-11-20T01:44:18;12.67;;;9.67;;
4519;SDS011;2272;49.226;8.108;2022-11-20T01:46:50;16.57;;;9.47;;
4519;SDS011;2272;49.226;8.108;2022-11-20T01:49:23;16.30;;;9.77;;
4519;SDS011;2272;49.226;8.108;2022-11-20T01:51:55;16.70;;;9.77;;
4519;SDS011;2272;49.226;8.108;2022-11-20T01:54:25;14.50;;;9.00;;
4519;SDS011;2272;49.226;8.108;2022-11-20T01:56:57;15.70;;;9.00;;
4519;SDS011;2272;49.226;8.108;2022-11-20T01:59:26;14.53;;;9.20;;
4519;SDS011;2272;49.226;8.108;2022-11-20T02:01:56;12.93;;;8.57;;
4519;SDS011;2272;49.226;8.108;2022-11-20T02:04:23;14.97;;;9.70;;
4519;SDS011;2272;49.226;8.108;2022-11-20T02:06:51;16.60;;;9.40;;
4519;SDS011;2272;49.226;8.108;2022-11-20T02:09:23;18.10;;;11.80;;
4519;SDS011;2272;49.226;8.108;2022-11-20T02:11:50;13.67;;;9.60;;
4519;SDS011;2272;49.226;8.108;2022-11-20T02:14:18;16.63;;;10.00;;
4519;SDS011;2272;49.226;8.108;2022-11-20T02:16:44;17.73;;;9.60;;
4519;SDS011;2272;49.226;8.108;2022-11-20T02:19:16;13.70;;;8.60;;
4519;SDS011;2272;49.226;8.108;2022-11-20T02:21:49;11.27;;;8.80;;
4519;SDS011;2272;49.226;8.108;2022-11-20T02:24:23;11.80;;;8.70;;
4519;SDS011;2272;49.226;8.108;2022-11-20T02:26:51;12.07;;;9.30;;
4519;SDS011;2272;49.226;8.108;2022-11-20T02:29:23;14.10;;;8.80;;
4519;SDS011;2272;49.226;8.108;2022-11-20T02:31:51;14.87;;;9.47;;
4519;SDS011;2272;49.226;8.108;2022-11-20T02:34:21;13.13;;;8.77;;
4519;SDS011;2272;49.226;8.108;2022-11-20T02:36:47;13.17;;;8.60;;
4519;SDS011;2272;49.226;8.108;2022-11-20T02:39:15;16.47;;;8.80;;
4519;SDS011;2272;49.226;8.108;2022-11-20T02:41:44;17.67;;;10.17;;
4519;SDS011;2272;49.226;8.108;2022-11-20T02:44:10;13.73;;;9.70;;
4519;SDS011;2272;49.226;8.108;2022-11-20T02:46:37;12.97;;;9.03;;
4519;SDS011;2272;49.226;8.108;2022-11-20T02:49:04;14.67;;;8.77;;
4519;SDS011;2272;49.226;8.108;2022-11-20T02:51:31;14.67;;;9.40;;
4519;SDS011;2272;49.226;8.108;2022-11-20T02:53:58;21.40;;;10.47;;
4519;SDS011;2272;49.226;8.108;2022-11-20T02:56:25;17.23;;;10.30;;
4519;SDS011;2272;49.226;8.108;2022-11-20T02:58:54;19.03;;;10.47;;
4519;SDS011;2272;49.226;8.108;2022-11-20T03:01:21;16.63;;;10.03;;
4519;SDS011;2272;49.226;8.108;2022-11-20T03:03:48;21.80;;;12.07;;
4519;SDS011;2272;49.226;8.108;2022-11-20T03:06:15;18.50;;;10.33;;
4519;SDS011;2272;49.226;8.108;2022-11-20T03:08:42;17.27;;;9.87;;
4519;SDS011;2272;49.226;8.108;2022-11-20T03:11:09;22.33;;;9.77;;
4519;SDS011;2272;49.226;8.108;2022-11-20T03:13:36;14.73;;;10.63;;
4519;SDS011;2272;49.226;8.108;2022-11-20T03:16:08;15.00;;;9.00;;
4519;SDS011;2272;49.226;8.108;2022-11-20T03:18:37;19.13;;;10.47;;
4519;SDS011;2272;49.226;8.108;2022-11-20T03:21:05;14.17;;;9.50;;
4519;SDS011;2272;49.226;8.108;2022-11-20T03:23:32;20.90;;;10.33;;
4519;SDS011;2272;49.226;8.108;2022-11-20T03:26:07;13.40;;;8.70;;
4519;SDS011;2272;49.226;8.108;2022-11-20T03:28:35;18.80;;;10.83;;
4519;SDS011;2272;49.226;8.108;2022-11-20T03:31:04;16.77;;;10.33;;
4519;SDS011;2272;49.226;8.108;2022-11-20T03:33:34;18.83;;;10.90;;
4519;SDS011;2272;49.226;8.108;2022-11-20T03:36:01;23.30;;;12.33;;
4519;SDS011;2272;49.226;8.108;2022-11-20T03:38:28;17.83;;;11.03;;
4519;SDS011;2272;49.226;8.108;2022-11-20T03:40:57;18.17;;;10.80;;
4519;SDS011;2272;49.226;8.108;2022-11-20T03:43:25;17.73;;;9.97;;
4519;SDS011;2272;49.226;8.108;2022-11-20T03:45:52;18.70;;;10.50;;
4519;SDS011;2272;49.226;8.108;2022-11-20T03:48:19;14.23;;;9.90;;
4519;SDS011;2272;49.226;8.108;2022-11-20T03:50:47;17.40;;;9.50;;
4519;SDS011;2272;49.226;8.108;2022-11-20T03:53:14;15.00;;;9.03;;
4519;SDS011;2272;49.226;8.108;2022-11-20T03:55:41;15.00;;;8.13;;
4519;SDS011;2272;49.226;8.108;2022-11-20T03:58:08;11.00;;;7.20;;
4519;SDS011;2272;49.226;8.108;2022-11-20T04:00:35;9.03;;;6.00;;
4519;SDS011;2272;49.226;8.108;2022-11-20T04:03:02;14.00;;;8.40;;
4519;SDS011;2272;49.226;8.108;2022-11-20T04:05:29;10.70;;;7.37;;
4519;SDS011;2272;49.226;8.108;2022-11-20T04:07:57;27.20;;;12.20;;
4519;SDS011;2272;49.226;8.108;2022-11-20T04:10:24;16.37;;;10.07;;
4519;SDS011;2272;49.226;8.108;2022-11-20T04:12:50;15.33;;;9.87;;
4519;SDS011;2272;49.226;8.108;2022-11-20T04:15:17;20.07;;;10.63;;
4519;SDS011;2272;49.226;8.108;2022-11-20T04:17:44;18.30;;;10.70;;
4519;SDS011;2272;49.226;8.108;2022-11-20T04:20:11;25.43;;;12.17;;
4519;SDS011;2272;49.226;8.108;2022-11-20T04:22:37;20.73;;;11.30;;
4519;SDS011;2272;49.226;8.108;2022-11-20T04:25:06;22.80;;;11.93;;
4519;SDS011;2272;49.226;8.108;2022-11-20T04:27:33;15.90;;;10.30;;
4519;SDS011;2272;49.226;8.108;2022-11-20T04:30:00;15.13;;;9.47;;
4519;SDS011;2272;49.226;8.108;2022-11-20T04:32:27;11.87;;;7.47;;
4519;SDS011;2272;49.226;8.108;2022-11-20T04:34:54;5.80;;;4.43;;
4519;SDS011;2272;49.226;8.108;2022-11-20T04:37:20;6.40;;;4.57;;
4519;SDS011;2272;49.226;8.108;2022-11-20T04:39:47;4.40;;;4.10;;
4519;SDS011;2272;49.226;8.108;2022-11-20T04:42:15;8.67;;;4.57;;
4519;SDS011;2272;49.226;8.108;2022-11-20T04:44:54;4.80;;;4.37;;
4519;SDS011;2272;49.226;8.108;2022-11-20T04:47:21;4.93;;;4.53;;
4519;SDS011;2272;49.226;8.108;2022-11-20T04:49:48;3.90;;;3.60;;
4519;SDS011;2272;49.226;8.108;2022-11-20T04:52:14;4.33;;;4.03;;
4519;SDS011;2272;49.226;8.108;2022-11-20T04:54:42;5.13;;;4.63;;
4519;SDS011;2272;49.226;8.108;2022-11-20T04:57:08;10.57;;;4.23;;
4519;SDS011;2272;49.226;8.108;2022-11-20T04:59:36;4.67;;;4.30;;
4519;SDS011;2272;49.226;8.108;2022-11-20T05:02:03;4.93;;;3.80;;
4519;SDS011;2272;49.226;8.108;2022-11-20T05:04:30;4.43;;;4.10;;
4519;SDS011;2272;49.226;8.108;2022-11-20T05:06:57;5.03;;;4.00;;
4519;SDS011;2272;49.226;8.108;2022-11-20T05:09:23;4.77;;;4.30;;
4519;SDS011;2272;49.226;8.108;2022-11-20T05:11:50;7.40;;;4.10;;
4519;SDS011;2272;49.226;8.108;2022-11-20T05:14:17;4.40;;;4.07;;
4519;SDS011;2272;49.226;8.108;2022-11-20T05:16:45;3.90;;;3.60;;
4519;SDS011;2272;49.226;8.108;2022-11-20T05:19:12;8.83;;;4.00;;
4519;SDS011;2272;49.226;8.108;2022-11-20T05:21:39;4.13;;;3.93;;
4519;SDS011;2272;49.226;8.108;2022-11-20T05:24:05;3.97;;;3.67;;
4519;SDS011;2272;49.226;8.108;2022-11-20T05:26:32;4.43;;;3.90;;
4519;SDS011;2272;49.226;8.108;2022-11-20T05:28:59;4.57;;;4.20;;
4519;SDS011;2272;49.226;8.108;2022-11-20T05:31:26;3.67;;;3.47;;
4519;SDS011;2272;49.226;8.108;2022-11-20T05:33:54;7.37;;;4.50;;
4519;SDS011;2272;49.226;8.108;2022-11-20T05:36:22;4.00;;;3.70;;
4519;SDS011;2272;49.226;8.108;2022-11-20T05:38:49;4.53;;;4.17;;
4519;SDS011;2272;49.226;8.108;2022-11-20T05:41:17;4.27;;;3.87;;
4519;SDS011;2272;49.226;8.108;2022-11-20T05:43:45;9.63;;;3.73;;
4519;SDS011;2272;49.226;8.108;2022-11-20T05:46:14;3.77;;;3.57;;
4519;SDS011;2272;49.226;8.108;2022-11-20T05:48:42;4.80;;;3.77;;
4519;SDS011;2272;49.226;8.108;2022-11-20T05:51:12;4.50;;;4.20;;
4519;SDS011;2272;49.226;8.108;2022-11-20T05:53:40;3.80;;;3.50;;
4519;SDS011;2272;49.226;8.108;2022-11-20T05:56:07;3.37;;;3.17;;
4519;SDS011;2272;49.226;8.108;2022-11-20T05:58:36;4.90;;;4.47;;
4519;SDS011;2272;49.226;8.108;2022-11-20T06:01:05;3.93;;;3.70;;
4519;SDS011;2272;49.226;8.108;2022-11-20T06:03:32;3.63;;;3.40;;
4519;SDS011;2272;49.226;8.108;2022-11-20T06:05:59;3.60;;;3.40;;
4519;SDS011;2272;49.226;8.108;2022-11-20T06:08:28;3.80;;;3.60;;
4519;SDS011;2272;49.226;8.108;2022-11-20T06:10:55;5.47;;;4.00;;
4519;SDS011;2272;49.226;8.108;2022-11-20T06:13:23;12.20;;;7.40;;
4519;SDS011;2272;49.226;8.108;2022-11-20T06:15:50;14.10;;;10.17;;
4519;SDS011;2272;49.226;8.108;2022-11-20T06:18:17;12.20;;;9.23;;
4519;SDS011;2272;49.226;8.108;2022-11-20T06:20:44;5.30;;;4.83;;
4519;SDS011;2272;49.226;8.108;2022-11-20T06:23:12;6.37;;;3.90;;
4519;SDS011;2272;49.226;8.108;2022-11-20T06:25:41;3.17;;;3.07;;
4519;SDS011;2272;49.226;8.108;2022-11-20T06:28:08;5.60;;;3.87;;
4519;SDS011;2272;49.226;8.108;2022-11-20T06:30:35;3.83;;;3.53;;
4519;SDS011;2272;49.226;8.108;2022-11-20T06:33:02;3.67;;;3.37;;
4519;SDS011;2272;49.226;8.108;2022-11-20T06:35:29;3.53;;;3.33;;
4519;SDS011;2272;49.226;8.108;2022-11-20T06:37:56;3.83;;;3.50;;
4519;SDS011;2272;49.226;8.108;2022-11-20T06:40:22;3.73;;;3.53;;
4519;SDS011;2272;49.226;8.108;2022-11-20T06:42:50;3.53;;;3.43;;
4519;SDS011;2272;49.226;8.108;2022-11-20T06:45:19;3.10;;;3.00;;
4519;SDS011;2272;49.226;8.108;2022-11-20T06:47:46;3.70;;;3.40;;
4519;SDS011;2272;49.226;8.108;2022-11-20T06:50:13;3.27;;;3.17;;
4519;SDS011;2272;49.226;8.108;2022-11-20T06:52:39;4.93;;;3.60;;
4519;SDS011;2272;49.226;8.108;2022-11-20T06:55:07;3.17;;;2.87;;
4519;SDS011;2272;49.226;8.108;2022-11-20T06:57:34;3.80;;;3.60;;
4519;SDS011;2272;49.226;8.108;2022-11-20T07:00:02;3.17;;;3.07;;
4519;SDS011;2272;49.226;8.108;2022-11-20T07:02:29;3.50;;;3.20;;
4519;SDS011;2272;49.226;8.108;2022-11-20T07:04:56;3.23;;;3.13;;
4519;SDS011;2272;49.226;8.108;2022-11-20T07:07:23;3.20;;;3.00;;
4519;SDS011;2272;49.226;8.108;2022-11-20T07:09:50;4.40;;;3.30;;
4519;SDS011;2272;49.226;8.108;2022-11-20T07:12:16;5.40;;;3.20;;
4519;SDS011;2272;49.226;8.108;2022-11-20T07:14:43;3.07;;;2.97;;
4519;SDS011;2272;49.226;8.108;2022-11-20T07:17:12;3.80;;;3.60;;
4519;SDS011;2272;49.226;8.108;2022-11-20T07:19:39;3.40;;;3.20;;
4519;SDS011;2272;49.226;8.108;2022-11-20T07:22:07;3.03;;;2.83;;
4519;SDS011;2272;49.226;8.108;2022-11-20T07:24:34;3.20;;;3.00;;
4519;SDS011;2272;49.226;8.108;2022-11-20T07:27:01;5.47;;;4.00;;
4519;SDS011;2272;49.226;8.108;2022-11-20T07:29:29;3.90;;;3.60;;
4519;SDS011;2272;49.226;8.108;2022-11-20T07:31:55;4.77;;;4.47;;
4519;SDS011;2272;49.226;8.108;2022-11-20T07:34:24;5.43;;;5.03;;
4519;SDS011;2272;49.226;8.108;2022-11-20T07:36:51;7.30;;;6.60;;
4519;SDS011;2272;49.226;8.108;2022-11-20T07:39:18;7.37;;;6.70;;
4519;SDS011;2272;49.226;8.108;2022-11-20T07:41:45;100.77;;;55.50;;
4519;SDS011;2272;49.226;8.108;2022-11-20T07:44:12;93.40;;;54.47;;
4519;SDS011;2272;49.226;8.108;2022-11-20T07:46:39;61.80;;;37.17;;
4519;SDS011;2272;49.226;8.108;2022-11-20T07:49:05;22.80;;;17.60;;
4519;SDS011;2272;49.226;8.108;2022-11-20T07:51:35;15.97;;;11.27;;
4519;SDS011;2272;49.226;8.108;2022-11-20T07:54:01;11.20;;;10.10;;
4519;SDS011;2272;49.226;8.108;2022-11-20T07:56:28;13.70;;;11.60;;
4519;SDS011;2272;49.226;8.108;2022-11-20T07:58:55;60.23;;;37.83;;
4519;SDS011;2272;49.226;8.108;2022-11-20T08:01:22;39.40;;;26.63;;
4519;SDS011;2272;49.226;8.108;2022-11-20T08:03:49;23.40;;;16.43;;
4519;SDS011;2272;49.226;8.108;2022-11-20T08:06:15;19.17;;;13.50;;
4519;SDS011;2272;49.226;8.108;2022-11-20T08:08:44;16.83;;;12.37;;
4519;SDS011;2272;49.226;8.108;2022-11-20T08:11:11;20.17;;;14.10;;
4519;SDS011;2272;49.226;8.108;2022-11-20T08:13:56;20.13;;;14.40;;
4519;SDS011;2272;49.226;8.108;2022-11-20T08:16:38;8.90;;;7.67;;
4519;SDS011;2272;49.226;8.108;2022-11-20T08:19:05;8.27;;;6.57;;
4519;SDS011;2272;49.226;8.108;2022-11-20T08:21:32;10.90;;;8.80;;
4519;SDS011;2272;49.226;8.108;2022-11-20T08:24:00;10.47;;;8.80;;
4519;SDS011;2272;49.226;8.108;2022-11-20T08:26:27;12.10;;;10.70;;
4519;SDS011;2272;49.226;8.108;2022-11-20T08:28:54;12.13;;;10.87;;
4519;SDS011;2272;49.226;8.108;2022-11-20T08:31:21;21.03;;;13.37;;
4519;SDS011;2272;49.226;8.108;2022-11-20T08:33:48;24.03;;;14.93;;
4519;SDS011;2272;49.226;8.108;2022-11-20T08:36:15;18.40;;;13.97;;
4519;SDS011;2272;49.226;8.108;2022-11-20T08:38:46;12.40;;;8.27;;
4519;SDS011;2272;49.226;8.108;2022-11-20T08:41:15;16.40;;;11.00;;
4519;SDS011;2272;49.226;8.108;2022-11-20T08:43:52;22.83;;;14.97;;
4519;SDS011;2272;49.226;8.108;2022-11-20T08:46:21;20.73;;;14.47;;
4519;SDS011;2272;49.226;8.108;2022-11-20T08:48:48;18.90;;;12.37;;
4519;SDS011;2272;49.226;8.108;2022-11-20T08:51:15;11.00;;;8.00;;
4519;SDS011;2272;49.226;8.108;2022-11-20T08:53:42;16.03;;;9.67;;
4519;SDS011;2272;49.226;8.108;2022-11-20T08:56:09;18.53;;;13.57;;
4519;SDS011;2272;49.226;8.108;2022-11-20T08:58:37;13.57;;;10.67;;
4519;SDS011;2272;49.226;8.108;2022-11-20T09:01:04;9.00;;;6.13;;
4519;SDS011;2272;49.226;8.108;2022-11-20T09:03:31;8.40;;;6.00;;
4519;SDS011;2272;49.226;8.108;2022-11-20T09:05:58;5.37;;;4.13;;
4519;SDS011;2272;49.226;8.108;2022-11-20T09:08:26;4.57;;;4.17;;
4519;SDS011;2272;49.226;8.108;2022-11-20T09:10:53;6.33;;;4.83;;
4519;SDS011;2272;49.226;8.108;2022-11-20T09:13:21;4.90;;;4.50;;
4519;SDS011;2272;49.226;8.108;2022-11-20T09:15:53;6.93;;;5.53;;
4519;SDS011;2272;49.226;8.108;2022-11-20T09:18:21;6.70;;;5.80;;
4519;SDS011;2272;49.226;8.108;2022-11-20T09:20:48;8.07;;;6.70;;
4519;SDS011;2272;49.226;8.108;2022-11-20T09:23:15;6.40;;;5.13;;
4519;SDS011;2272;49.226;8.108;2022-11-20T09:25:42;4.43;;;4.10;;
4519;SDS011;2272;49.226;8.108;2022-11-20T09:28:09;3.27;;;3.07;;
4519;SDS011;2272;49.226;8.108;2022-11-20T09:30:36;3.70;;;3.47;;
4519;SDS011;2272;49.226;8.108;2022-11-20T09:33:05;3.57;;;3.37;;
4519;SDS011;2272;49.226;8.108;2022-11-20T09:35:32;2.63;;;2.53;;
4519;SDS011;2272;49.226;8.108;2022-11-20T09:38:03;3.57;;;3.10;;
4519;SDS011;2272;49.226;8.108;2022-11-20T09:40:30;2.37;;;2.27;;
4519;SDS011;2272;49.226;8.108;2022-11-20T09:42:58;3.10;;;2.90;;
4519;SDS011;2272;49.226;8.108;2022-11-20T09:45:37;2.23;;;2.13;;
4519;SDS011;2272;49.226;8.108;2022-11-20T09:48:18;2.57;;;2.37;;
4519;SDS011;2272;49.226;8.108;2022-11-20T09:50:53;7.33;;;2.73;;
4519;SDS011;2272;49.226;8.108;2022-11-20T09:53:29;2.67;;;2.57;;
4519;SDS011;2272;49.226;8.108;2022-11-20T09:56:01;5.27;;;2.40;;
4519;SDS011;2272;49.226;8.108;2022-11-20T09:58:31;2.00;;;2.00;;
4519;SDS011;2272;49.226;8.108;2022-11-20T10:01:03;4.07;;;3.70;;
4519;SDS011;2272;49.226;8.108;2022-11-20T10:03:37;4.10;;;3.80;;
4519;SDS011;2272;49.226;8.108;2022-11-20T10:06:12;3.63;;;3.20;;
4519;SDS011;2272;49.226;8.108;2022-11-20T10:08:44;3.50;;;3.30;;
4519;SDS011;2272;49.226;8.108;2022-11-20T10:11:15;6.40;;;3.40;;
4519;SDS011;2272;49.226;8.108;2022-11-20T10:13:49;7.73;;;3.90;;
4519;SDS011;2272;49.226;8.108;2022-11-20T10:16:26;5.23;;;4.40;;
4519;SDS011;2272;49.226;8.108;2022-11-20T10:19:13;3.67;;;3.37;;
4519;SDS011;2272;49.226;8.108;2022-11-20T10:21:51;6.80;;;5.60;;
4519;SDS011;2272;49.226;8.108;2022-11-20T10:24:34;5.17;;;4.67;;
4519;SDS011;2272;49.226;8.108;2022-11-20T10:27:12;3.40;;;3.20;;
4519;SDS011;2272;49.226;8.108;2022-11-20T10:29:52;7.20;;;3.40;;
4519;SDS011;2272;49.226;8.108;2022-11-20T10:32:30;9.83;;;3.77;;
4519;SDS011;2272;49.226;8.108;2022-11-20T10:35:03;3.73;;;3.43;;
4519;SDS011;2272;49.226;8.108;2022-11-20T10:37:34;5.67;;;3.97;;
4519;SDS011;2272;49.226;8.108;2022-11-20T10:40:14;6.80;;;5.50;;
4519;SDS011;2272;49.226;8.108;2022-11-20T10:42:48;16.13;;;9.47;;
4519;SDS011;2272;49.226;8.108;2022-11-20T10:45:26;12.93;;;7.57;;
4519;SDS011;2272;49.226;8.108;2022-11-20T10:48:14;15.53;;;9.30;;
4519;SDS011;2272;49.226;8.108;2022-11-20T10:50:57;6.90;;;5.87;;
4519;SDS011;2272;49.226;8.108;2022-11-20T10:56:25;6.53;;;3.93;;
4519;SDS011;2272;49.226;8.108;2022-11-20T10:59:04;4.50;;;3.00;;
4519;SDS011;2272;49.226;8.108;2022-11-20T11:01:52;7.63;;;3.40;;
4519;SDS011;2272;49.226;8.108;2022-11-20T11:04:26;3.90;;;2.73;;
4519;SDS011;2272;49.226;8.108;2022-11-20T11:07:06;6.10;;;2.87;;
4519;SDS011;2272;49.226;8.108;2022-11-20T11:09:39;11.60;;;2.83;;
4519;SDS011;2272;49.226;8.108;2022-11-20T11:12:09;4.17;;;3.20;;
4519;SDS011;2272;49.226;8.108;2022-11-20T11:14:43;5.33;;;2.60;;
4519;SDS011;2272;49.226;8.108;2022-11-20T11:17:22;7.87;;;3.50;;
4519;SDS011;2272;49.226;8.108;2022-11-20T11:20:03;4.10;;;2.83;;
4519;SDS011;2272;49.226;8.108;2022-11-20T11:22:34;8.27;;;3.30;;
4519;SDS011;2272;49.226;8.108;2022-11-20T11:25:11;4.10;;;3.13;;
4519;SDS011;2272;49.226;8.108;2022-11-20T11:27:53;2.70;;;2.50;;
4519;SDS011;2272;49.226;8.108;2022-11-20T11:30:22;4.50;;;2.87;;
4519;SDS011;2272;49.226;8.108;2022-11-20T11:32:50;3.43;;;2.43;;
4519;SDS011;2272;49.226;8.108;2022-11-20T11:35:28;8.43;;;3.80;;
4519;SDS011;2272;49.226;8.108;2022-11-20T11:38:02;3.27;;;3.00;;
4519;SDS011;2272;49.226;8.108;2022-11-20T11:40:32;4.40;;;3.23;;
4519;SDS011;2272;49.226;8.108;2022-11-20T11:43:02;6.93;;;3.87;;
4519;SDS011;2272;49.226;8.108;2022-11-20T11:45:52;15.33;;;2.97;;
4519;SDS011;2272;49.226;8.108;2022-11-20T11:48:19;5.70;;;3.23;;
4519;SDS011;2272;49.226;8.108;2022-11-20T11:50:47;7.40;;;2.37;;
4519;SDS011;2272;49.226;8.108;2022-11-20T11:53:17;8.70;;;3.90;;
4519;SDS011;2272;49.226;8.108;2022-11-20T11:55:45;4.00;;;2.13;;
4519;SDS011;2272;49.226;8.108;2022-11-20T11:58:19;2.30;;;1.63;;
4519;SDS011;2272;49.226;8.108;2022-11-20T12:00:58;9.00;;;2.07;;
4519;SDS011;2272;49.226;8.108;2022-11-20T12:03:32;2.40;;;2.17;;
4519;SDS011;2272;49.226;8.108;2022-11-20T12:06:03;5.83;;;2.40;;
4519;SDS011;2272;49.226;8.108;2022-11-20T12:08:39;4.77;;;2.53;;
4519;SDS011;2272;49.226;8.108;2022-11-20T12:11:11;4.93;;;2.20;;
4519;SDS011;2272;49.226;8.108;2022-11-20T12:13:44;3.83;;;1.80;;
4519;SDS011;2272;49.226;8.108;2022-11-20T12:16:18;3.10;;;2.07;;
4519;SDS011;2272;49.226;8.108;2022-11-20T12:18:46;3.83;;;2.43;;
4519;SDS011;2272;49.226;8.108;2022-11-20T12:21:19;4.60;;;1.77;;
4519;SDS011;2272;49.226;8.108;2022-11-20T12:26:52;4.83;;;2.03;;
4519;SDS011;2272;49.226;8.108;2022-11-20T12:29:31;1.63;;;1.50;;
4519;SDS011;2272;49.226;8.108;2022-11-20T12:32:22;3.03;;;1.80;;
4519;SDS011;2272;49.226;8.108;2022-11-20T12:35:08;3.73;;;1.80;;
4519;SDS011;2272;49.226;8.108;2022-11-20T12:37:47;2.10;;;1.60;;
4519;SDS011;2272;49.226;8.108;2022-11-20T12:40:27;5.57;;;1.87;;
4519;SDS011;2272;49.226;8.108;2022-11-20T12:43:06;6.27;;;1.60;;
4519;SDS011;2272;49.226;8.108;2022-11-20T12:49:10;3.80;;;1.57;;
4519;SDS011;2272;49.226;8.108;2022-11-20T12:51:54;2.33;;;1.50;;
4519;SDS011;2272;49.226;8.108;2022-11-20T12:54:43;4.30;;;2.07;;
4519;SDS011;2272;49.226;8.108;2022-11-20T12:57:32;5.37;;;1.97;;
4519;SDS011;2272;49.226;8.108;2022-11-20T13:00:08;4.70;;;1.40;;
4519;SDS011;2272;49.226;8.108;2022-11-20T13:02:43;2.47;;;1.13;;
4519;SDS011;2272;49.226;8.108;2022-11-20T13:05:34;2.10;;;1.43;;
4519;SDS011;2272;49.226;8.108;2022-11-20T13:08:06;2.77;;;1.87;;
4519;SDS011;2272;49.226;8.108;2022-11-20T13:10:42;9.40;;;2.07;;
4519;SDS011;2272;49.226;8.108;2022-11-20T13:13:14;3.87;;;1.77;;
4519;SDS011;2272;49.226;8.108;2022-11-20T13:15:50;2.90;;;1.63;;
4519;SDS011;2272;49.226;8.108;2022-11-20T13:18:22;7.97;;;2.10;;
4519;SDS011;2272;49.226;8.108;2022-11-20T13:20:49;3.97;;;2.50;;
4519;SDS011;2272;49.226;8.108;2022-11-20T13:23:23;5.03;;;3.90;;
4519;SDS011;2272;49.226;8.108;2022-11-20T13:26:02;1.80;;;1.50;;
4519;SDS011;2272;49.226;8.108;2022-11-20T13:28:31;2.23;;;1.47;;
4519;SDS011;2272;49.226;8.108;2022-11-20T13:30:58;0.80;;;0.80;;
4519;SDS011;2272;49.226;8.108;2022-11-20T13:33:29;1.80;;;1.40;;
4519;SDS011;2272;49.226;8.108;2022-11-20T13:35:58;2.37;;;1.20;;
4519;SDS011;2272;49.226;8.108;2022-11-20T13:38:26;1.37;;;1.27;;
4519;SDS011;2272;49.226;8.108;2022-11-20T13:40:54;5.60;;;1.20;;
4519;SDS011;2272;49.226;8.108;2022-11-20T13:43:22;6.40;;;1.57;;
4519;SDS011;2272;49.226;8.108;2022-11-20T13:45:57;4.87;;;1.30;;
4519;SDS011;2272;49.226;8.108;2022-11-20T13:48:26;1.33;;;1.03;;
4519;SDS011;2272;49.226;8.108;2022-11-20T13:51:02;12.53;;;1.43;;
4519;SDS011;2272;49.226;8.108;2022-11-20T13:53:48;5.47;;;2.50;;
4519;SDS011;2272;49.226;8.108;2022-11-20T13:56:26;5.63;;;1.90;;
4519;SDS011;2272;49.226;8.108;2022-11-20T13:59:05;2.57;;;1.80;;
4519;SDS011;2272;49.226;8.108;2022-11-20T14:01:42;5.97;;;1.70;;
4519;SDS011;2272;49.226;8.108;2022-11-20T14:04:12;2.03;;;1.80;;
4519;SDS011;2272;49.226;8.108;2022-11-20T14:06:44;2.13;;;1.93;;
4519;SDS011;2272;49.226;8.108;2022-11-20T14:09:13;1.70;;;1.40;;
4519;SDS011;2272;49.226;8.108;2022-11-20T14:11:52;9.40;;;1.93;;
4519;SDS011;2272;49.226;8.108;2022-11-20T14:14:19;2.97;;;2.00;;
4519;SDS011;2272;49.226;8.108;2022-11-20T14:16:49;1.23;;;1.13;;
4519;SDS011;2272;49.226;8.108;2022-11-20T14:19:23;1.97;;;1.50;;
4519;SDS011;2272;49.226;8.108;2022-11-20T14:21:53;1.50;;;1.37;;
4519;SDS011;2272;49.226;8.108;2022-11-20T14:24:32;2.90;;;1.83;;
4519;SDS011;2272;49.226;8.108;2022-11-20T14:26:59;2.60;;;1.53;;
4519;SDS011;2272;49.226;8.108;2022-11-20T14:29:27;6.00;;;1.27;;
4519;SDS011;2272;49.226;8.108;2022-11-20T14:31:58;3.47;;;1.07;;
4519;SDS011;2272;49.226;8.108;2022-11-20T14:34:25;3.27;;;1.00;;
4519;SDS011;2272;49.226;8.108;2022-11-20T14:36:55;4.10;;;1.23;;
4519;SDS011;2272;49.226;8.108;2022-11-20T14:39:25;2.30;;;2.20;;
4519;SDS011;2272;49.226;8.108;2022-11-20T14:41:56;3.63;;;1.97;;
4519;SDS011;2272;49.226;8.108;2022-11-20T14:44:25;2.70;;;2.20;;
4519;SDS011;2272;49.226;8.108;2022-11-20T14:46:54;1.90;;;1.53;;
4519;SDS011;2272;49.226;8.108;2022-11-20T14:49:24;1.77;;;1.67;;
4519;SDS011;2272;49.226;8.108;2022-11-20T14:51:58;1.50;;;1.40;;
4519;SDS011;2272;49.226;8.108;2022-11-20T14:54:26;2.63;;;1.53;;
4519;SDS011;2272;49.226;8.108;2022-11-20T14:56:54;4.40;;;1.73;;
4519;SDS011;2272;49.226;8.108;2022-11-20T14:59:22;2.50;;;1.40;;
4519;SDS011;2272;49.226;8.108;2022-11-20T15:01:54;9.13;;;2.60;;
4519;SDS011;2272;49.226;8.108;2022-11-20T15:04:24;2.20;;;1.83;;
4519;SDS011;2272;49.226;8.108;2022-11-20T15:06:51;3.10;;;2.13;;
4519;SDS011;2272;49.226;8.108;2022-11-20T15:09:20;1.97;;;1.83;;
4519;SDS011;2272;49.226;8.108;2022-11-20T15:11:52;2.93;;;1.83;;
4519;SDS011;2272;49.226;8.108;2022-11-20T15:14:21;3.13;;;2.70;;
4519;SDS011;2272;49.226;8.108;2022-11-20T15:16:49;2.40;;;1.77;;
4519;SDS011;2272;49.226;8.108;2022-11-20T15:19:16;4.90;;;2.23;;
4519;SDS011;2272;49.226;8.108;2022-11-20T15:21:46;9.37;;;2.40;;
4519;SDS011;2272;49.226;8.108;2022-11-20T15:24:13;2.00;;;1.90;;
4519;SDS011;2272;49.226;8.108;2022-11-20T15:26:41;6.93;;;2.57;;
4519;SDS011;2272;49.226;8.108;2022-11-20T15:29:08;9.23;;;4.10;;
4519;SDS011;2272;49.226;8.108;2022-11-20T15:31:36;5.13;;;3.00;;